sensor_id;sensor_type;location;lat;lon;timestamp;pressure;altitude;pressure_sealevel;temperature;humidity
43217;BME280;60511;42.686;23.300;2022-07-19T00:00:46;95375.41;;;27.72;28.76
43217;BME280;60511;42.686;23.300;2022-07-19T00:02:46;95385.16;;;27.73;28.88
43217;BME280;60511;42.686;23.300;2022-07-19T00:04:47;95382.09;;;27.75;28.70
43217;BME280;60511;42.686;23.300;2022-07-19T00:06:47;95377.72;;;27.70;28.83
43217;BME280;60511;42.686;23.300;2022-07-19T00:08:49;95377.66;;;27.67;28.90
43217;BME280;60511;42.686;23.300;2022-07-19T00:10:49;95379.66;;;27.70;28.92
43217;BME280;60511;42.686;23.300;2022-07-19T00:12:49;95378.09;;;27.69;28.90
43217;BME280;60511;42.686;23.300;2022-07-19T00:14:50;95375.78;;;27.71;28.96
43217;BME280;60511;42.686;23.300;2022-07-19T00:16:50;95390.09;;;27.68;29.27
43217;BME280;60511;42.686;23.300;2022-07-19T00:18:50;95380.75;;;27.65;29.05
43217;BME280;60511;42.686;23.300;2022-07-19T00:20:51;95379.59;;;27.66;29.22
43217;BME280;60511;42.686;23.300;2022-07-19T00:22:51;95375.72;;;27.67;29.17
43217;BME280;60511;42.686;23.300;2022-07-19T00:24:51;95387.38;;;27.68;29.09
43217;BME280;60511;42.686;23.300;2022-07-19T00:26:51;95378.09;;;27.69;29.20
43217;BME280;60511;42.686;23.300;2022-07-19T00:28:52;95376.94;;;27.70;29.15
43217;BME280;60511;42.686;23.300;2022-07-19T00:30:55;95372.66;;;27.69;29.46
43217;BME280;60511;42.686;23.300;2022-07-19T00:32:56;95380.38;;;27.67;29.37
43217;BME280;60511;42.686;23.300;2022-07-19T00:34:56;95381.16;;;27.67;29.41
43217;BME280;60511;42.686;23.300;2022-07-19T00:36:56;95377.66;;;27.67;29.35
43217;BME280;60511;42.686;23.300;2022-07-19T00:38:57;95374.16;;;27.66;29.54
43217;BME280;60511;42.686;23.300;2022-07-19T00:40:57;95373.06;;;27.71;29.46
43217;BME280;60511;42.686;23.300;2022-07-19T00:43:00;95381.94;;;27.68;29.54
43217;BME280;60511;42.686;23.300;2022-07-19T00:45:00;95376.44;;;27.64;29.65
43217;BME280;60511;42.686;23.300;2022-07-19T00:47:01;95375.66;;;27.63;29.52
43217;BME280;60511;42.686;23.300;2022-07-19T00:49:03;95386.25;;;27.69;29.59
43217;BME280;60511;42.686;23.300;2022-07-19T00:51:03;95382.25;;;27.62;29.57
43217;BME280;60511;42.686;23.300;2022-07-19T00:53:04;95373.00;;;27.67;29.66
43217;BME280;60511;42.686;23.300;2022-07-19T00:55:07;95373.78;;;27.68;29.62
43217;BME280;60511;42.686;23.300;2022-07-19T00:57:08;95367.84;;;27.62;29.78
43217;BME280;60511;42.686;23.300;2022-07-19T00:59:09;95375.59;;;27.60;30.02
43217;BME280;60511;42.686;23.300;2022-07-19T01:01:10;95372.44;;;27.58;29.72
43217;BME280;60511;42.686;23.300;2022-07-19T01:03:11;95375.97;;;27.58;30.04
43217;BME280;60511;42.686;23.300;2022-07-19T01:05:13;95379.91;;;27.61;29.77
43217;BME280;60511;42.686;23.300;2022-07-19T01:07:13;95368.16;;;27.57;29.99
43217;BME280;60511;42.686;23.300;2022-07-19T01:09:14;95370.41;;;27.51;29.98
43217;BME280;60511;42.686;23.300;2022-07-19T01:11:16;95377.09;;;27.57;29.92
43217;BME280;60511;42.686;23.300;2022-07-19T01:13:16;95369.38;;;27.59;29.97
43217;BME280;60511;42.686;23.300;2022-07-19T01:15:20;95368.59;;;27.59;29.97
43217;BME280;60511;42.686;23.300;2022-07-19T01:17:21;95369.66;;;27.54;30.04
43217;BME280;60511;42.686;23.300;2022-07-19T01:19:21;95374.66;;;27.52;29.98
43217;BME280;60511;42.686;23.300;2022-07-19T01:21:22;95370.16;;;27.60;30.01
43217;BME280;60511;42.686;23.300;2022-07-19T01:23:22;95358.13;;;27.61;29.97
43217;BME280;60511;42.686;23.300;2022-07-19T01:25:23;95365.09;;;27.58;30.02
43217;BME280;60511;42.686;23.300;2022-07-19T01:27:23;95360.88;;;27.61;30.04
43217;BME280;60511;42.686;23.300;2022-07-19T01:29:24;95358.91;;;27.61;30.04
43217;BME280;60511;42.686;23.300;2022-07-19T01:31:24;95362.66;;;27.53;30.06
43217;BME280;60511;42.686;23.300;2022-07-19T01:33:25;95354.84;;;27.52;30.27
43217;BME280;60511;42.686;23.300;2022-07-19T01:35:25;95354.16;;;27.55;30.24
43217;BME280;60511;42.686;23.300;2022-07-19T01:37:26;95356.31;;;27.45;30.23
43217;BME280;60511;42.686;23.300;2022-07-19T01:39:26;95366.06;;;27.47;30.31
43217;BME280;60511;42.686;23.300;2022-07-19T01:41:26;95355.59;;;27.49;30.45
43217;BME280;60511;42.686;23.300;2022-07-19T01:43:26;95357.16;;;27.50;30.14
43217;BME280;60511;42.686;23.300;2022-07-19T01:45:28;95359.53;;;27.51;30.20
43217;BME280;60511;42.686;23.300;2022-07-19T01:47:28;95361.06;;;27.52;30.29
43217;BME280;60511;42.686;23.300;2022-07-19T01:49:28;95349.06;;;27.53;30.18
43217;BME280;60511;42.686;23.300;2022-07-19T01:51:28;95355.53;;;27.45;30.25
43217;BME280;60511;42.686;23.300;2022-07-19T01:53:29;95352.56;;;27.54;30.23
43217;BME280;60511;42.686;23.300;2022-07-19T01:55:29;95356.50;;;27.56;30.16
43217;BME280;60511;42.686;23.300;2022-07-19T01:57:29;95357.59;;;27.52;30.05
43217;BME280;60511;42.686;23.300;2022-07-19T01:59:30;95355.63;;;27.52;30.30
43217;BME280;60511;42.686;23.300;2022-07-19T02:01:30;95350.19;;;27.52;30.29
43217;BME280;60511;42.686;23.300;2022-07-19T02:03:30;95359.09;;;27.49;30.31
43217;BME280;60511;42.686;23.300;2022-07-19T02:05:30;95352.03;;;27.44;30.55
43217;BME280;60511;42.686;23.300;2022-07-19T02:07:31;95360.97;;;27.45;30.35
43217;BME280;60511;42.686;23.300;2022-07-19T02:09:31;95348.94;;;27.46;30.28
43217;BME280;60511;42.686;23.300;2022-07-19T02:11:31;95358.66;;;27.47;30.44
43217;BME280;60511;42.686;23.300;2022-07-19T02:13:34;95357.91;;;27.47;30.38
43217;BME280;60511;42.686;23.300;2022-07-19T02:15:35;95364.38;;;27.42;30.57
43217;BME280;60511;42.686;23.300;2022-07-19T02:17:35;95358.19;;;27.41;30.54
43217;BME280;60511;42.686;23.300;2022-07-19T02:19:35;95362.41;;;27.39;30.58
43217;BME280;60511;42.686;23.300;2022-07-19T02:21:37;95363.69;;;27.45;30.46
43217;BME280;60511;42.686;23.300;2022-07-19T02:23:37;95355.09;;;27.43;30.55
43217;BME280;60511;42.686;23.300;2022-07-19T02:25:38;95365.13;;;27.39;30.66
43217;BME280;60511;42.686;23.300;2022-07-19T02:27:38;95350.69;;;27.35;30.79
43217;BME280;60511;42.686;23.300;2022-07-19T02:29:38;95361.25;;;27.40;30.80
43217;BME280;60511;42.686;23.300;2022-07-19T02:31:39;95358.53;;;27.40;30.36
43217;BME280;60511;42.686;23.300;2022-07-19T02:33:39;95362.06;;;27.40;30.49
43217;BME280;60511;42.686;23.300;2022-07-19T02:35:39;95373.22;;;27.35;30.65
43217;BME280;60511;42.686;23.300;2022-07-19T02:37:40;95367.84;;;27.39;30.61
43217;BME280;60511;42.686;23.300;2022-07-19T02:39:40;95367.91;;;27.42;30.58
43217;BME280;60511;42.686;23.300;2022-07-19T02:41:40;95370.63;;;27.42;30.52
43217;BME280;60511;42.686;23.300;2022-07-19T02:43:41;95369.81;;;27.42;30.62
43217;BME280;60511;42.686;23.300;2022-07-19T02:45:41;95364.78;;;27.40;30.58
43217;BME280;60511;42.686;23.300;2022-07-19T02:47:42;95372.13;;;27.40;30.49
43217;BME280;60511;42.686;23.300;2022-07-19T02:49:42;95381.00;;;27.37;30.61
43217;BME280;60511;42.686;23.300;2022-07-19T02:51:42;95380.94;;;27.33;30.80
43217;BME280;60511;42.686;23.300;2022-07-19T02:53:43;95380.16;;;27.33;30.73
43217;BME280;60511;42.686;23.300;2022-07-19T02:55:43;95378.66;;;27.35;30.57
43217;BME280;60511;42.686;23.300;2022-07-19T02:57:43;95371.34;;;27.39;30.47
43217;BME280;60511;42.686;23.300;2022-07-19T02:59:44;95382.13;;;27.36;30.48
43217;BME280;60511;42.686;23.300;2022-07-19T03:01:45;95385.00;;;27.43;30.53
43217;BME280;60511;42.686;23.300;2022-07-19T03:03:45;95381.88;;;27.41;30.50
43217;BME280;60511;42.686;23.300;2022-07-19T03:05:47;95385.66;;;27.36;30.55
43217;BME280;60511;42.686;23.300;2022-07-19T03:07:48;95389.09;;;27.33;30.44
43217;BME280;60511;42.686;23.300;2022-07-19T03:09:48;95373.53;;;27.30;30.73
43217;BME280;60511;42.686;23.300;2022-07-19T03:11:49;95382.44;;;27.31;30.74
43217;BME280;60511;42.686;23.300;2022-07-19T03:13:49;95389.44;;;27.32;30.62
43217;BME280;60511;42.686;23.300;2022-07-19T03:15:49;95374.00;;;27.36;30.62
43217;BME280;60511;42.686;23.300;2022-07-19T03:17:49;95382.94;;;27.36;30.71
43217;BME280;60511;42.686;23.300;2022-07-19T03:19:50;95382.09;;;27.32;30.60
43217;BME280;60511;42.686;23.300;2022-07-19T03:21:50;95392.13;;;27.28;30.57
43217;BME280;60511;42.686;23.300;2022-07-19T03:23:50;95386.28;;;27.30;30.63
43217;BME280;60511;42.686;23.300;2022-07-19T03:25:50;95390.09;;;27.25;30.74
43217;BME280;60511;42.686;23.300;2022-07-19T03:27:51;95383.16;;;27.28;30.74
43217;BME280;60511;42.686;23.300;2022-07-19T03:29:51;95382.38;;;27.27;30.59
43217;BME280;60511;42.686;23.300;2022-07-19T03:31:51;95395.31;;;27.34;30.64
43217;BME280;60511;42.686;23.300;2022-07-19T03:33:52;95396.13;;;27.34;30.62
43217;BME280;60511;42.686;23.300;2022-07-19T03:35:52;95399.63;;;27.35;30.58
43217;BME280;60511;42.686;23.300;2022-07-19T03:37:54;95400.13;;;27.40;30.47
43217;BME280;60511;42.686;23.300;2022-07-19T03:39:54;95400.91;;;27.41;30.53
43217;BME280;60511;42.686;23.300;2022-07-19T03:41:55;95405.16;;;27.42;30.57
43217;BME280;60511;42.686;23.300;2022-07-19T03:43:55;95401.75;;;27.45;30.54
43217;BME280;60511;42.686;23.300;2022-07-19T03:45:55;95404.03;;;27.43;30.40
43217;BME280;60511;42.686;23.300;2022-07-19T03:47:55;95403.31;;;27.46;30.29
43217;BME280;60511;42.686;23.300;2022-07-19T03:49:56;95403.69;;;27.44;30.28
43217;BME280;60511;42.686;23.300;2022-07-19T03:51:57;95402.94;;;27.48;30.34
43217;BME280;60511;42.686;23.300;2022-07-19T03:53:57;95401.41;;;27.47;30.57
43217;BME280;60511;42.686;23.300;2022-07-19T03:55:57;95409.59;;;27.50;30.37
43217;BME280;60511;42.686;23.300;2022-07-19T03:57:59;95412.69;;;27.49;30.44
43217;BME280;60511;42.686;23.300;2022-07-19T03:59:59;95409.91;;;27.45;30.41
43217;BME280;60511;42.686;23.300;2022-07-19T04:01:59;95413.41;;;27.45;30.46
43217;BME280;60511;42.686;23.300;2022-07-19T04:04:00;95420.69;;;27.41;30.60
43217;BME280;60511;42.686;23.300;2022-07-19T04:06:00;95420.69;;;27.41;30.44
43217;BME280;60511;42.686;23.300;2022-07-19T04:08:01;95413.03;;;27.47;30.39
43217;BME280;60511;42.686;23.300;2022-07-19T04:10:02;95423.06;;;27.43;30.53
43217;BME280;60511;42.686;23.300;2022-07-19T04:12:02;95425.47;;;27.48;30.34
43217;BME280;60511;42.686;23.300;2022-07-19T04:14:03;95422.41;;;27.50;30.34
43217;BME280;60511;42.686;23.300;2022-07-19T04:16:03;95424.34;;;27.49;30.44
43217;BME280;60511;42.686;23.300;2022-07-19T04:18:04;95419.75;;;27.53;30.48
43217;BME280;60511;42.686;23.300;2022-07-19T04:20:05;95423.63;;;27.52;30.23
43217;BME280;60511;42.686;23.300;2022-07-19T04:22:06;95422.91;;;27.55;30.43
43217;BME280;60511;42.686;23.300;2022-07-19T04:24:06;95428.34;;;27.55;30.35
43217;BME280;60511;42.686;23.300;2022-07-19T04:26:07;95429.97;;;27.60;30.15
43217;BME280;60511;42.686;23.300;2022-07-19T04:28:07;95413.97;;;27.55;30.29
43217;BME280;60511;42.686;23.300;2022-07-19T04:30:07;95418.19;;;27.52;30.33
43217;BME280;60511;42.686;23.300;2022-07-19T04:32:08;95423.34;;;27.57;30.42
43217;BME280;60511;42.686;23.300;2022-07-19T04:34:08;95421.75;;;27.56;30.43
43217;BME280;60511;42.686;23.300;2022-07-19T04:36:08;95420.91;;;27.52;30.43
43217;BME280;60511;42.686;23.300;2022-07-19T04:38:08;95424.41;;;27.53;30.39
43217;BME280;60511;42.686;23.300;2022-07-19T04:40:09;95419.09;;;27.60;30.31
43217;BME280;60511;42.686;23.300;2022-07-19T04:42:09;95422.13;;;27.55;30.38
43217;BME280;60511;42.686;23.300;2022-07-19T04:44:09;95421.69;;;27.53;30.29
43217;BME280;60511;42.686;23.300;2022-07-19T04:46:10;95432.28;;;27.58;30.40
43217;BME280;60511;42.686;23.300;2022-07-19T04:48:10;95426.84;;;27.58;30.51
43217;BME280;60511;42.686;23.300;2022-07-19T04:50:11;95428.91;;;27.64;30.37
43217;BME280;60511;42.686;23.300;2022-07-19T04:52:11;95429.78;;;27.69;30.24
43217;BME280;60511;42.686;23.300;2022-07-19T04:54:11;95432.50;;;27.69;30.18
43217;BME280;60511;42.686;23.300;2022-07-19T04:56:12;95432.50;;;27.69;30.26
43217;BME280;60511;42.686;23.300;2022-07-19T04:58:12;95433.28;;;27.69;30.23
43217;BME280;60511;42.686;23.300;2022-07-19T05:00:13;95431.75;;;27.72;30.10
43217;BME280;60511;42.686;23.300;2022-07-19T05:02:13;95436.41;;;27.71;30.10
43217;BME280;60511;42.686;23.300;2022-07-19T05:04:15;95427.91;;;27.73;30.17
43217;BME280;60511;42.686;23.300;2022-07-19T05:06:15;95431.31;;;27.70;30.38
43217;BME280;60511;42.686;23.300;2022-07-19T05:08:17;95437.94;;;27.69;30.11
43217;BME280;60511;42.686;23.300;2022-07-19T05:10:17;95434.78;;;27.67;30.18
43217;BME280;60511;42.686;23.300;2022-07-19T05:12:17;95434.03;;;27.70;30.12
43217;BME280;60511;42.686;23.300;2022-07-19T05:14:18;95433.28;;;27.69;30.06
43217;BME280;60511;42.686;23.300;2022-07-19T05:16:19;95429.69;;;27.65;30.51
43217;BME280;60511;42.686;23.300;2022-07-19T05:18:19;95430.19;;;27.71;30.29
43217;BME280;60511;42.686;23.300;2022-07-19T05:20:19;95431.03;;;27.75;30.11
43217;BME280;60511;42.686;23.300;2022-07-19T05:22:19;95434.47;;;27.72;30.23
43217;BME280;60511;42.686;23.300;2022-07-19T05:24:20;95437.63;;;27.74;30.05
43217;BME280;60511;42.686;23.300;2022-07-19T05:26:21;95434.13;;;27.73;30.41
43217;BME280;60511;42.686;23.300;2022-07-19T05:28:22;95425.97;;;27.73;30.32
43217;BME280;60511;42.686;23.300;2022-07-19T05:30:23;95439.47;;;27.70;30.21
43217;BME280;60511;42.686;23.300;2022-07-19T05:32:23;95428.31;;;27.75;30.34
43217;BME280;60511;42.686;23.300;2022-07-19T05:34:23;95431.81;;;27.75;30.34
43217;BME280;60511;42.686;23.300;2022-07-19T05:36:23;95442.69;;;27.75;30.10
43217;BME280;60511;42.686;23.300;2022-07-19T05:38:24;95441.13;;;27.74;30.31
43217;BME280;60511;42.686;23.300;2022-07-19T05:40:24;95437.97;;;27.72;30.38
43217;BME280;60511;42.686;23.300;2022-07-19T05:42:24;95441.53;;;27.76;30.14
43217;BME280;60511;42.686;23.300;2022-07-19T05:44:25;95443.13;;;27.77;30.36
43217;BME280;60511;42.686;23.300;2022-07-19T05:46:26;95432.59;;;27.76;30.34
43217;BME280;60511;42.686;23.300;2022-07-19T05:48:26;95434.22;;;27.80;30.06
43217;BME280;60511;42.686;23.300;2022-07-19T05:50:26;95439.63;;;27.77;30.23
43217;BME280;60511;42.686;23.300;2022-07-19T05:52:27;95435.69;;;27.74;30.17
43217;BME280;60511;42.686;23.300;2022-07-19T05:54:27;95435.75;;;27.78;30.08
43217;BME280;60511;42.686;23.300;2022-07-19T05:56:27;95432.94;;;27.74;30.10
43217;BME280;60511;42.686;23.300;2022-07-19T05:58:28;95436.84;;;27.73;30.25
43217;BME280;60511;42.686;23.300;2022-07-19T06:00:28;95431.81;;;27.75;30.22
43217;BME280;60511;42.686;23.300;2022-07-19T06:02:28;95430.31;;;27.78;30.21
43217;BME280;60511;42.686;23.300;2022-07-19T06:04:30;95427.66;;;27.81;30.39
43217;BME280;60511;42.686;23.300;2022-07-19T06:06:31;95431.94;;;27.82;30.35
43217;BME280;60511;42.686;23.300;2022-07-19T06:08:31;95433.81;;;27.78;30.33
43217;BME280;60511;42.686;23.300;2022-07-19T06:10:32;95430.22;;;27.74;30.00
43217;BME280;60511;42.686;23.300;2022-07-19T06:12:32;95431.91;;;27.79;30.12
43217;BME280;60511;42.686;23.300;2022-07-19T06:14:32;95427.94;;;27.76;30.28
43217;BME280;60511;42.686;23.300;2022-07-19T06:16:33;95434.28;;;27.84;30.08
43217;BME280;60511;42.686;23.300;2022-07-19T06:18:33;95426.66;;;27.90;30.00
43217;BME280;60511;42.686;23.300;2022-07-19T06:20:34;95428.78;;;27.80;30.14
43217;BME280;60511;42.686;23.300;2022-07-19T06:22:34;95432.34;;;27.84;30.04
43217;BME280;60511;42.686;23.300;2022-07-19T06:24:34;95426.56;;;27.86;30.21
43217;BME280;60511;42.686;23.300;2022-07-19T06:26:35;95432.75;;;27.83;30.02
43217;BME280;60511;42.686;23.300;2022-07-19T06:28:36;95429.63;;;27.84;30.05
43217;BME280;60511;42.686;23.300;2022-07-19T06:30:36;95421.94;;;27.87;29.95
43217;BME280;60511;42.686;23.300;2022-07-19T06:32:36;95422.75;;;27.87;29.97
43217;BME280;60511;42.686;23.300;2022-07-19T06:34:37;95416.63;;;27.94;29.98
43217;BME280;60511;42.686;23.300;2022-07-19T06:36:37;95417.34;;;27.91;29.89
43217;BME280;60511;42.686;23.300;2022-07-19T06:38:37;95423.59;;;27.91;30.17
43217;BME280;60511;42.686;23.300;2022-07-19T06:40:38;95418.91;;;27.92;29.93
43217;BME280;60511;42.686;23.300;2022-07-19T06:42:38;95413.91;;;27.94;29.85
43217;BME280;60511;42.686;23.300;2022-07-19T06:44:38;95418.91;;;27.92;29.96
43217;BME280;60511;42.686;23.300;2022-07-19T06:46:39;95419.69;;;27.92;29.95
43217;BME280;60511;42.686;23.300;2022-07-19T06:48:39;95414.31;;;27.96;29.74
43217;BME280;60511;42.686;23.300;2022-07-19T06:50:39;95407.38;;;27.98;30.00
43217;BME280;60511;42.686;23.300;2022-07-19T06:52:40;95417.47;;;27.98;29.89
43217;BME280;60511;42.686;23.300;2022-07-19T06:54:41;95416.31;;;27.99;29.97
43217;BME280;60511;42.686;23.300;2022-07-19T06:56:42;95414.38;;;27.99;29.83
43217;BME280;60511;42.686;23.300;2022-07-19T06:58:43;95417.03;;;27.96;30.00
43217;BME280;60511;42.686;23.300;2022-07-19T07:00:43;95412.09;;;28.01;29.94
43217;BME280;60511;42.686;23.300;2022-07-19T07:02:44;95413.66;;;28.02;29.77
43217;BME280;60511;42.686;23.300;2022-07-19T07:04:44;95409.72;;;28.00;29.80
43217;BME280;60511;42.686;23.300;2022-07-19T07:06:44;95416.69;;;27.97;29.87
43217;BME280;60511;42.686;23.300;2022-07-19T07:08:45;95409.38;;;28.01;29.87
43217;BME280;60511;42.686;23.300;2022-07-19T07:10:45;95407.78;;;28.00;29.76
43217;BME280;60511;42.686;23.300;2022-07-19T07:12:45;95410.50;;;28.00;29.81
43217;BME280;60511;42.686;23.300;2022-07-19T07:14:47;95404.72;;;28.02;29.77
43217;BME280;60511;42.686;23.300;2022-07-19T07:16:48;95407.28;;;27.95;29.94
43217;BME280;60511;42.686;23.300;2022-07-19T07:18:48;95402.34;;;28.00;30.03
43217;BME280;60511;42.686;23.300;2022-07-19T07:20:50;95410.09;;;27.98;29.84
43217;BME280;60511;42.686;23.300;2022-07-19T07:22:50;95410.44;;;27.97;30.14
43217;BME280;60511;42.686;23.300;2022-07-19T07:24:50;95402.34;;;28.00;30.13
43217;BME280;60511;42.686;23.300;2022-07-19T07:26:51;95408.56;;;28.01;29.98
43217;BME280;60511;42.686;23.300;2022-07-19T07:28:51;95408.97;;;28.03;29.86
43217;BME280;60511;42.686;23.300;2022-07-19T07:30:51;95407.78;;;28.00;29.86
43217;BME280;60511;42.686;23.300;2022-07-19T07:32:51;95411.34;;;28.04;29.65
43217;BME280;60511;42.686;23.300;2022-07-19T07:34:52;95408.22;;;28.02;29.92
43217;BME280;60511;42.686;23.300;2022-07-19T07:36:52;95408.56;;;28.01;30.01
43217;BME280;60511;42.686;23.300;2022-07-19T07:38:53;95403.13;;;28.01;29.70
43217;BME280;60511;42.686;23.300;2022-07-19T07:40:53;95407.06;;;28.03;30.02
43217;BME280;60511;42.686;23.300;2022-07-19T07:42:53;95393.88;;;28.05;29.72
43217;BME280;60511;42.686;23.300;2022-07-19T07:44:54;95405.91;;;28.04;29.71
43217;BME280;60511;42.686;23.300;2022-07-19T07:46:54;95412.56;;;28.07;29.83
43217;BME280;60511;42.686;23.300;2022-07-19T07:48:54;95407.44;;;28.02;29.61
43217;BME280;60511;42.686;23.300;2022-07-19T07:50:54;95402.41;;;28.04;29.66
43217;BME280;60511;42.686;23.300;2022-07-19T07:52:55;95401.63;;;28.03;29.23
43217;BME280;60511;42.686;23.300;2022-07-19T07:54:55;95394.97;;;28.01;28.92
43217;BME280;60511;42.686;23.300;2022-07-19T07:56:55;95389.91;;;27.99;29.12
43217;BME280;60511;42.686;23.300;2022-07-19T07:58:56;95393.88;;;28.05;29.53
43217;BME280;60511;42.686;23.300;2022-07-19T08:00:56;95391.16;;;28.05;29.33
43217;BME280;60511;42.686;23.300;2022-07-19T08:02:56;95405.19;;;28.08;29.06
43217;BME280;60511;42.686;23.300;2022-07-19T08:04:56;95407.09;;;28.07;29.19
43217;BME280;60511;42.686;23.300;2022-07-19T08:06:57;95402.41;;;28.04;28.98
43217;BME280;60511;42.686;23.300;2022-07-19T08:08:57;95393.47;;;28.03;29.11
43217;BME280;60511;42.686;23.300;2022-07-19T08:10:57;95396.19;;;28.03;28.85
43217;BME280;60511;42.686;23.300;2022-07-19T08:12:58;95399.69;;;28.04;28.41
43217;BME280;60511;42.686;23.300;2022-07-19T08:14:58;95391.09;;;28.02;28.09
43217;BME280;60511;42.686;23.300;2022-07-19T08:16:59;95395.38;;;28.03;28.92
43217;BME280;60511;42.686;23.300;2022-07-19T08:18:59;95394.66;;;28.06;28.60
43217;BME280;60511;42.686;23.300;2022-07-19T08:20:59;95393.88;;;28.05;28.70
43217;BME280;60511;42.686;23.300;2022-07-19T08:23:00;95397.38;;;28.06;28.88
43217;BME280;60511;42.686;23.300;2022-07-19T08:25:00;95396.19;;;28.03;28.39
43217;BME280;60511;42.686;23.300;2022-07-19T08:27:00;95404.38;;;28.07;28.31
43217;BME280;60511;42.686;23.300;2022-07-19T08:29:01;95394.31;;;28.08;27.90
43217;BME280;60511;42.686;23.300;2022-07-19T08:31:01;95394.31;;;28.08;27.54
43217;BME280;60511;42.686;23.300;2022-07-19T08:33:01;95402.06;;;28.05;27.89
43217;BME280;60511;42.686;23.300;2022-07-19T08:35:03;95403.53;;;28.03;27.96
43217;BME280;60511;42.686;23.300;2022-07-19T08:37:03;95395.09;;;28.08;27.15
43217;BME280;60511;42.686;23.300;2022-07-19T08:39:04;95398.59;;;28.09;26.45
43217;BME280;60511;42.686;23.300;2022-07-19T08:41:04;95394.31;;;28.08;27.04
43217;BME280;60511;42.686;23.300;2022-07-19T08:43:05;95380.28;;;28.05;27.02
43217;BME280;60511;42.686;23.300;2022-07-19T08:45:07;95393.88;;;28.05;26.61
43217;BME280;60511;42.686;23.300;2022-07-19T08:47:09;95388.06;;;28.07;27.36
43217;BME280;60511;42.686;23.300;2022-07-19T08:49:09;95384.19;;;28.08;27.09
43217;BME280;60511;42.686;23.300;2022-07-19T08:51:10;95384.56;;;28.07;26.33
43217;BME280;60511;42.686;23.300;2022-07-19T08:53:10;95381.06;;;28.06;26.51
43217;BME280;60511;42.686;23.300;2022-07-19T08:55:11;95380.69;;;28.08;26.79
43217;BME280;60511;42.686;23.300;2022-07-19T08:57:12;95376.41;;;28.07;27.08
43217;BME280;60511;42.686;23.300;2022-07-19T08:59:31;95379.13;;;28.07;26.08
43217;BME280;60511;42.686;23.300;2022-07-19T09:01:31;95384.97;;;28.09;26.27
43217;BME280;60511;42.686;23.300;2022-07-19T09:03:31;95390.41;;;28.09;27.18
43217;BME280;60511;42.686;23.300;2022-07-19T09:05:32;95372.53;;;28.08;26.52
43217;BME280;60511;42.686;23.300;2022-07-19T09:07:36;95374.88;;;28.09;25.72
43217;BME280;60511;42.686;23.300;2022-07-19T09:09:36;95374.44;;;28.07;26.24
43217;BME280;60511;42.686;23.300;2022-07-19T09:11:38;95372.53;;;28.08;26.62
43217;BME280;60511;42.686;23.300;2022-07-19T09:13:40;95372.56;;;28.11;26.23
43217;BME280;60511;42.686;23.300;2022-07-19T09:15:47;95371.03;;;28.10;26.88
43217;BME280;60511;42.686;23.300;2022-07-19T09:17:49;95374.50;;;28.11;26.30
43217;BME280;60511;42.686;23.300;2022-07-19T09:20:04;95369.50;;;28.13;26.55
43217;BME280;60511;42.686;23.300;2022-07-19T09:22:07;95387.00;;;28.12;26.39
43217;BME280;60511;42.686;23.300;2022-07-19T09:24:09;95354.34;;;28.12;26.40
43217;BME280;60511;42.686;23.300;2022-07-19T09:26:10;95365.63;;;28.14;25.46
43217;BME280;60511;42.686;23.300;2022-07-19T09:28:10;95355.88;;;28.13;25.35
43217;BME280;60511;42.686;23.300;2022-07-19T09:30:12;95362.50;;;28.12;25.89
43217;BME280;60511;42.686;23.300;2022-07-19T09:32:13;95369.50;;;28.13;25.36
43217;BME280;60511;42.686;23.300;2022-07-19T09:34:25;95352.38;;;28.12;26.05
43217;BME280;60511;42.686;23.300;2022-07-19T09:36:28;95362.84;;;28.10;25.54
43217;BME280;60511;42.686;23.300;2022-07-19T09:38:30;95363.63;;;28.11;25.17
43217;BME280;60511;42.686;23.300;2022-07-19T09:40:30;95350.81;;;28.11;26.00
43217;BME280;60511;42.686;23.300;2022-07-19T09:42:36;95371.03;;;28.10;26.11
43217;BME280;60511;42.686;23.300;2022-07-19T09:44:36;95362.09;;;28.13;26.20
43217;BME280;60511;42.686;23.300;2022-07-19T09:46:38;95354.34;;;28.12;26.56
43217;BME280;60511;42.686;23.300;2022-07-19T09:48:42;95355.09;;;28.12;25.87
43217;BME280;60511;42.686;23.300;2022-07-19T09:50:43;95359.38;;;28.13;25.63
43217;BME280;60511;42.686;23.300;2022-07-19T09:52:44;95352.44;;;28.16;25.51
43217;BME280;60511;42.686;23.300;2022-07-19T09:54:45;95342.34;;;28.16;25.68
43217;BME280;60511;42.686;23.300;2022-07-19T09:56:46;95349.34;;;28.17;25.71
43217;BME280;60511;42.686;23.300;2022-07-19T09:58:47;95349.41;;;28.21;25.25
43217;BME280;60511;42.686;23.300;2022-07-19T10:00:47;95347.88;;;28.23;26.55
43217;BME280;60511;42.686;23.300;2022-07-19T10:02:50;95347.50;;;28.25;26.28
43217;BME280;60511;42.686;23.300;2022-07-19T10:04:51;95343.66;;;28.26;26.29
43217;BME280;60511;42.686;23.300;2022-07-19T10:06:52;95342.84;;;28.25;26.04
43217;BME280;60511;42.686;23.300;2022-07-19T10:08:55;95341.72;;;28.27;26.38
43217;BME280;60511;42.686;23.300;2022-07-19T10:10:56;95337.47;;;28.29;26.30
43217;BME280;60511;42.686;23.300;2022-07-19T10:12:56;95343.22;;;28.24;26.40
43217;BME280;60511;42.686;23.300;2022-07-19T10:14:57;95339.69;;;28.20;26.59
43217;BME280;60511;42.686;23.300;2022-07-19T10:17:01;95343.22;;;28.24;26.53
43217;BME280;60511;42.686;23.300;2022-07-19T10:19:10;95336.69;;;28.29;26.71
43217;BME280;60511;42.686;23.300;2022-07-19T10:21:12;95334.03;;;28.32;26.57
43217;BME280;60511;42.686;23.300;2022-07-19T10:23:14;95339.47;;;28.32;26.71
43217;BME280;60511;42.686;23.300;2022-07-19T10:25:14;95340.25;;;28.33;26.52
43217;BME280;60511;42.686;23.300;2022-07-19T10:27:16;95341.78;;;28.34;26.59
43217;BME280;60511;42.686;23.300;2022-07-19T10:29:17;95337.56;;;28.36;26.54
43217;BME280;60511;42.686;23.300;2022-07-19T10:31:24;95329.41;;;28.36;26.61